createdAt,value
2023-05-05T00:00:58.000Z,9.71
2023-05-05T00:01:58.000Z,9.71
2023-05-05T00:02:58.000Z,9.70
2023-05-05T00:03:58.000Z,9.70
2023-05-05T00:04:58.000Z,9.68
2023-05-05T00:05:58.000Z,9.66
2023-05-05T00:06:58.000Z,9.68
2023-05-05T00:07:58.000Z,9.67
2023-05-05T00:08:58.000Z,9.67
2023-05-05T00:09:58.000Z,9.64
2023-05-05T00:10:58.000Z,9.63
2023-05-05T00:11:58.000Z,9.64
2023-05-05T00:12:58.000Z,9.66
2023-05-05T00:13:58.000Z,9.60
2023-05-05T00:14:58.000Z,9.60
2023-05-05T00:15:58.000Z,9.58
2023-05-05T00:16:58.000Z,9.60
2023-05-05T00:17:58.000Z,9.57
2023-05-05T00:18:58.000Z,9.58
2023-05-05T00:19:59.000Z,9.61
2023-05-05T00:20:59.000Z,9.60
2023-05-05T00:21:59.000Z,9.58
2023-05-05T00:22:59.000Z,9.61
2023-05-05T00:23:59.000Z,9.58
2023-05-05T00:24:59.000Z,9.60
2023-05-05T00:25:59.000Z,9.63
2023-05-05T00:26:59.000Z,9.63
2023-05-05T00:27:59.000Z,9.60
2023-05-05T00:28:59.000Z,9.61
2023-05-05T00:29:59.000Z,9.58
2023-05-05T00:30:59.000Z,9.60
2023-05-05T00:31:59.000Z,9.58
2023-05-05T00:32:59.000Z,9.58
2023-05-05T00:33:59.000Z,9.61
2023-05-05T00:34:59.000Z,9.60
2023-05-05T00:35:59.000Z,9.63
2023-05-05T00:36:59.000Z,9.60
2023-05-05T00:37:59.000Z,9.61
2023-05-05T00:39:00.000Z,9.60
2023-05-05T00:40:00.000Z,9.63
2023-05-05T00:41:00.000Z,9.63
2023-05-05T00:42:00.000Z,9.58
2023-05-05T00:43:00.000Z,9.56
2023-05-05T00:44:00.000Z,9.58
2023-05-05T00:45:00.000Z,9.58
2023-05-05T00:46:00.000Z,9.53
2023-05-05T00:47:00.000Z,9.56
2023-05-05T00:48:00.000Z,9.57
2023-05-05T00:49:00.000Z,9.60
2023-05-05T00:50:00.000Z,9.58
2023-05-05T00:51:00.000Z,9.57
2023-05-05T00:52:00.000Z,9.56
2023-05-05T00:53:00.000Z,9.57
2023-05-05T00:54:00.000Z,9.57
2023-05-05T00:55:00.000Z,9.53
2023-05-05T00:56:00.000Z,9.49
2023-05-05T00:57:00.000Z,9.48
2023-05-05T00:58:00.000Z,9.49
2023-05-05T00:59:01.000Z,9.43
2023-05-05T01:00:01.000Z,9.43
2023-05-05T01:01:01.000Z,9.48
2023-05-05T01:02:01.000Z,9.38
2023-05-05T01:03:01.000Z,9.42
2023-05-05T01:04:01.000Z,9.40
2023-05-05T01:05:01.000Z,9.38
2023-05-05T01:06:01.000Z,9.35
2023-05-05T01:07:01.000Z,9.31
2023-05-05T01:08:01.000Z,9.32
2023-05-05T01:09:01.000Z,9.28
2023-05-05T01:10:01.000Z,9.24
2023-05-05T01:11:01.000Z,9.24
2023-05-05T01:12:01.000Z,9.24
2023-05-05T01:13:01.000Z,9.21
2023-05-05T01:14:01.000Z,9.18
2023-05-05T01:15:01.000Z,9.15
2023-05-05T01:16:01.000Z,9.16
2023-05-05T01:17:01.000Z,9.09
2023-05-05T01:18:01.000Z,9.05
2023-05-05T01:19:01.000Z,9.06
2023-05-05T01:20:02.000Z,9.02
2023-05-05T01:21:02.000Z,9.02
2023-05-05T01:22:02.000Z,8.99
2023-05-05T01:23:02.000Z,8.99
2023-05-05T01:24:02.000Z,8.94
2023-05-05T01:25:02.000Z,8.94
2023-05-05T01:26:02.000Z,8.94
2023-05-05T01:27:02.000Z,8.93
2023-05-05T01:28:02.000Z,8.91
2023-05-05T01:29:02.000Z,8.91
2023-05-05T01:30:02.000Z,8.88
2023-05-05T01:31:02.000Z,8.84
2023-05-05T01:32:02.000Z,8.84
2023-05-05T01:33:02.000Z,8.79
2023-05-05T01:34:02.000Z,8.72
2023-05-05T01:35:02.000Z,8.69
2023-05-05T01:36:02.000Z,8.62
2023-05-05T01:37:02.000Z,8.62
2023-05-05T01:38:02.000Z,8.53
2023-05-05T01:39:03.000Z,8.53
2023-05-05T01:40:03.000Z,8.42
2023-05-05T01:41:03.000Z,8.36
2023-05-05T01:42:03.000Z,8.33
2023-05-05T01:43:03.000Z,8.32
2023-05-05T01:44:03.000Z,8.25
2023-05-05T01:45:03.000Z,8.21
2023-05-05T01:46:03.000Z,8.20
2023-05-05T01:47:03.000Z,8.20
2023-05-05T01:48:03.000Z,8.17
2023-05-05T01:49:03.000Z,8.17
2023-05-05T01:50:03.000Z,8.18
2023-05-05T01:51:03.000Z,8.14
2023-05-05T01:52:03.000Z,8.15
2023-05-05T01:53:03.000Z,8.14
2023-05-05T01:54:03.000Z,8.14
2023-05-05T01:55:03.000Z,8.15
2023-05-05T01:56:04.000Z,8.15
2023-05-05T01:57:04.000Z,8.14
2023-05-05T01:58:04.000Z,8.11
2023-05-05T01:59:04.000Z,8.14
2023-05-05T02:00:04.000Z,8.10
2023-05-05T02:01:04.000Z,8.14
2023-05-05T02:02:04.000Z,8.12
2023-05-05T02:03:04.000Z,8.11
2023-05-05T02:04:04.000Z,8.14
2023-05-05T02:05:04.000Z,8.14
2023-05-05T02:06:04.000Z,8.15
2023-05-05T02:07:04.000Z,8.14
2023-05-05T02:08:04.000Z,8.17
2023-05-05T02:09:04.000Z,8.14
2023-05-05T02:10:04.000Z,8.18
2023-05-05T02:11:04.000Z,8.15
2023-05-05T02:12:04.000Z,8.17
2023-05-05T02:13:05.000Z,8.15
2023-05-05T02:14:05.000Z,8.18
2023-05-05T02:15:05.000Z,8.12
2023-05-05T02:16:05.000Z,8.11
2023-05-05T02:17:05.000Z,8.08
2023-05-05T02:18:05.000Z,8.03
2023-05-05T02:19:05.000Z,8.04
2023-05-05T02:20:05.000Z,8.00
2023-05-05T02:21:05.000Z,7.97
2023-05-05T02:22:05.000Z,7.96
2023-05-05T02:23:05.000Z,7.94
2023-05-05T02:24:05.000Z,7.94
2023-05-05T02:25:05.000Z,7.85
2023-05-05T02:26:05.000Z,7.85
2023-05-05T02:27:05.000Z,7.84
2023-05-05T02:28:05.000Z,7.85
2023-05-05T02:29:06.000Z,7.81
2023-05-05T02:30:06.000Z,7.87
2023-05-05T02:31:06.000Z,7.79
2023-05-05T02:32:06.000Z,7.89
2023-05-05T02:33:06.000Z,7.92
2023-05-05T02:34:06.000Z,8.00
2023-05-05T02:35:06.000Z,8.07
2023-05-05T02:36:06.000Z,8.17
2023-05-05T02:37:06.000Z,8.25
2023-05-05T02:38:06.000Z,8.36
2023-05-05T02:39:06.000Z,8.42
2023-05-05T02:40:06.000Z,8.51
2023-05-05T02:41:06.000Z,8.57
2023-05-05T02:42:06.000Z,8.60
2023-05-05T02:43:06.000Z,8.65
2023-05-05T02:44:07.000Z,8.68
2023-05-05T02:45:07.000Z,8.76
2023-05-05T02:46:07.000Z,8.81
2023-05-05T02:47:07.000Z,8.84
2023-05-05T02:48:07.000Z,8.86
2023-05-05T02:49:07.000Z,8.88
2023-05-05T02:50:07.000Z,8.88
2023-05-05T02:51:07.000Z,8.93
2023-05-05T02:52:07.000Z,8.87
2023-05-05T02:53:07.000Z,8.86
2023-05-05T02:54:07.000Z,8.90
2023-05-05T02:55:07.000Z,8.84
2023-05-05T02:56:07.000Z,8.81
2023-05-05T02:57:07.000Z,8.81
2023-05-05T02:58:07.000Z,8.72
2023-05-05T02:59:08.000Z,8.79
2023-05-05T03:00:08.000Z,8.73
2023-05-05T03:01:08.000Z,8.72
2023-05-05T03:02:08.000Z,8.72
2023-05-05T03:03:08.000Z,8.72
2023-05-05T03:04:08.000Z,8.73
2023-05-05T03:05:08.000Z,8.73
2023-05-05T03:06:08.000Z,8.78
2023-05-05T03:07:08.000Z,8.76
2023-05-05T03:08:08.000Z,8.79
2023-05-05T03:09:08.000Z,8.76
2023-05-05T03:10:08.000Z,8.79
2023-05-05T03:11:08.000Z,8.79
2023-05-05T03:12:08.000Z,8.83
2023-05-05T03:13:09.000Z,8.84
2023-05-05T03:14:09.000Z,8.79
2023-05-05T03:15:09.000Z,8.81
2023-05-05T03:16:09.000Z,8.79
2023-05-05T03:17:09.000Z,8.81
2023-05-05T03:18:09.000Z,8.81
2023-05-05T03:19:09.000Z,8.81
2023-05-05T03:20:09.000Z,8.84
2023-05-05T03:21:09.000Z,8.86
2023-05-05T03:22:09.000Z,8.88
2023-05-05T03:23:09.000Z,8.87
2023-05-05T03:24:09.000Z,8.84
2023-05-05T03:25:09.000Z,8.84
2023-05-05T03:26:09.000Z,8.83
2023-05-05T03:27:09.000Z,8.83
2023-05-05T03:28:09.000Z,8.76
2023-05-05T03:29:09.000Z,8.79
2023-05-05T03:30:10.000Z,8.78
2023-05-05T03:31:10.000Z,8.78
2023-05-05T03:32:10.000Z,8.73
2023-05-05T03:33:10.000Z,8.76
2023-05-05T03:34:10.000Z,8.78
2023-05-05T03:35:10.000Z,8.76
2023-05-05T03:36:10.000Z,8.79
2023-05-05T03:37:10.000Z,8.75
2023-05-05T03:38:10.000Z,8.78
2023-05-05T03:39:10.000Z,8.78
2023-05-05T03:40:10.000Z,8.73
2023-05-05T03:41:10.000Z,8.75
2023-05-05T03:42:10.000Z,8.76
2023-05-05T03:43:10.000Z,8.75
2023-05-05T03:44:10.000Z,8.73
2023-05-05T03:45:10.000Z,8.78
2023-05-05T03:46:11.000Z,8.79
2023-05-05T03:47:11.000Z,8.76
2023-05-05T03:48:11.000Z,8.79
2023-05-05T03:49:11.000Z,8.83
2023-05-05T03:50:11.000Z,8.79
2023-05-05T03:51:11.000Z,8.81
2023-05-05T03:52:11.000Z,8.83
2023-05-05T03:53:11.000Z,8.84
2023-05-05T03:54:11.000Z,8.86
2023-05-05T03:55:11.000Z,8.84
2023-05-05T03:56:11.000Z,8.84
2023-05-05T03:57:11.000Z,8.84
2023-05-05T03:58:11.000Z,8.86
2023-05-05T03:59:11.000Z,8.87
2023-05-05T04:00:11.000Z,8.83
2023-05-05T04:01:11.000Z,8.86
2023-05-05T04:02:12.000Z,8.84
2023-05-05T04:03:12.000Z,8.83
2023-05-05T04:04:12.000Z,8.83
2023-05-05T04:05:12.000Z,8.81
2023-05-05T04:06:12.000Z,8.84
2023-05-05T04:07:12.000Z,8.83
2023-05-05T04:08:12.000Z,8.84
2023-05-05T04:09:12.000Z,8.86
2023-05-05T04:10:12.000Z,8.84
2023-05-05T04:11:12.000Z,8.79
2023-05-05T04:12:12.000Z,8.84
2023-05-05T04:13:12.000Z,8.83
2023-05-05T04:14:12.000Z,8.84
2023-05-05T04:15:12.000Z,8.78
2023-05-05T04:16:12.000Z,8.84
2023-05-05T04:17:12.000Z,8.83
2023-05-05T04:18:13.000Z,8.86
2023-05-05T04:19:13.000Z,8.79
2023-05-05T04:20:13.000Z,8.83
2023-05-05T04:21:13.000Z,8.84
2023-05-05T04:22:13.000Z,8.78
2023-05-05T04:23:13.000Z,8.79
2023-05-05T04:24:13.000Z,8.78
2023-05-05T04:25:13.000Z,8.79
2023-05-05T04:26:13.000Z,8.81
2023-05-05T04:27:13.000Z,8.81
2023-05-05T04:28:13.000Z,8.83
2023-05-05T04:29:13.000Z,8.83
2023-05-05T04:30:13.000Z,8.84
2023-05-05T04:31:13.000Z,8.83
2023-05-05T04:32:13.000Z,8.81
2023-05-05T04:33:13.000Z,8.87
2023-05-05T04:34:14.000Z,8.87
2023-05-05T04:35:14.000Z,8.86
2023-05-05T04:36:14.000Z,8.86
2023-05-05T04:37:14.000Z,8.87
2023-05-05T04:38:14.000Z,8.88
2023-05-05T04:39:14.000Z,8.88
2023-05-05T04:40:14.000Z,8.90
2023-05-05T04:41:14.000Z,8.91
2023-05-05T04:42:14.000Z,8.93
2023-05-05T04:43:14.000Z,8.96
2023-05-05T04:44:14.000Z,8.97
2023-05-05T04:45:14.000Z,8.99
2023-05-05T04:46:14.000Z,9.02
2023-05-05T04:47:14.000Z,9.02
2023-05-05T04:48:14.000Z,9.06
2023-05-05T04:49:14.000Z,9.12
2023-05-05T04:50:14.000Z,9.12
2023-05-05T04:51:15.000Z,9.12
2023-05-05T04:52:15.000Z,9.16
2023-05-05T04:53:15.000Z,9.16
2023-05-05T04:54:15.000Z,9.21
2023-05-05T04:55:15.000Z,9.21
2023-05-05T04:56:15.000Z,9.24
2023-05-05T04:57:15.000Z,9.25
2023-05-05T04:58:15.000Z,9.27
2023-05-05T04:59:15.000Z,9.30
2023-05-05T05:00:15.000Z,9.34
2023-05-05T05:01:15.000Z,9.35
2023-05-05T05:02:15.000Z,9.40
2023-05-05T05:03:15.000Z,9.43
2023-05-05T05:04:15.000Z,9.45
2023-05-05T05:05:15.000Z,9.45
2023-05-05T05:06:15.000Z,9.50
2023-05-05T05:07:15.000Z,9.48
2023-05-05T05:08:16.000Z,9.50
2023-05-05T05:09:16.000Z,9.52
2023-05-05T05:10:16.000Z,9.58
2023-05-05T05:11:16.000Z,9.63
2023-05-05T05:12:16.000Z,9.64
2023-05-05T05:13:16.000Z,9.70
2023-05-05T05:14:16.000Z,9.73
2023-05-05T05:15:16.000Z,9.76
2023-05-05T05:16:16.000Z,9.79
2023-05-05T05:17:16.000Z,9.88
2023-05-05T05:18:16.000Z,9.88
2023-05-05T05:19:16.000Z,9.93
2023-05-05T05:20:16.000Z,10.04
2023-05-05T05:21:16.000Z,10.04
2023-05-05T05:22:16.000Z,10.12
2023-05-05T05:23:16.000Z,10.17
2023-05-05T05:24:16.000Z,10.17
2023-05-05T05:25:16.000Z,10.22
2023-05-05T05:26:17.000Z,10.26
2023-05-05T05:27:17.000Z,10.30
2023-05-05T05:28:17.000Z,10.34
2023-05-05T05:29:17.000Z,10.40
2023-05-05T05:30:17.000Z,10.42
2023-05-05T05:31:17.000Z,10.53
2023-05-05T05:32:17.000Z,10.56
2023-05-05T05:33:17.000Z,10.62
2023-05-05T05:34:17.000Z,10.68
2023-05-05T05:35:17.000Z,10.73
2023-05-05T05:36:17.000Z,10.81
2023-05-05T05:37:17.000Z,10.84
2023-05-05T05:38:17.000Z,10.89
2023-05-05T05:39:17.000Z,10.96
2023-05-05T05:40:17.000Z,10.98
2023-05-05T05:41:17.000Z,11.02
2023-05-05T05:42:17.000Z,11.07
2023-05-05T05:43:17.000Z,11.16
2023-05-05T05:44:17.000Z,11.20
2023-05-05T05:45:18.000Z,11.24
2023-05-05T05:46:18.000Z,11.32
2023-05-05T05:47:18.000Z,11.35
2023-05-05T05:48:18.000Z,11.41
2023-05-05T05:49:18.000Z,11.50
2023-05-05T05:50:18.000Z,11.53
2023-05-05T05:51:18.000Z,11.59
2023-05-05T05:52:18.000Z,11.62
2023-05-05T05:53:18.000Z,11.68
2023-05-05T05:54:18.000Z,11.74
2023-05-05T05:55:18.000Z,11.78
2023-05-05T05:56:18.000Z,11.86
2023-05-05T05:57:18.000Z,11.94
2023-05-05T05:58:18.000Z,12.01
2023-05-05T05:59:18.000Z,12.04
2023-05-05T06:00:18.000Z,12.08
2023-05-05T06:01:18.000Z,12.16
2023-05-05T06:02:18.000Z,12.21
2023-05-05T06:03:18.000Z,12.27
2023-05-05T06:04:18.000Z,12.31
2023-05-05T06:05:18.000Z,12.39
2023-05-05T06:06:18.000Z,12.39
2023-05-05T06:07:18.000Z,12.45
2023-05-05T06:08:18.000Z,12.54
2023-05-05T06:09:18.000Z,12.52
2023-05-05T06:10:19.000Z,12.63
2023-05-05T06:11:19.000Z,12.71
2023-05-05T06:12:19.000Z,12.77
2023-05-05T06:13:19.000Z,12.81
2023-05-05T06:14:19.000Z,12.82
2023-05-05T06:15:19.000Z,12.88
2023-05-05T06:16:19.000Z,12.85
2023-05-05T06:17:19.000Z,12.92
2023-05-05T06:18:19.000Z,12.95
2023-05-05T06:19:19.000Z,12.99
2023-05-05T06:20:19.000Z,13.02
2023-05-05T06:21:19.000Z,13.03
2023-05-05T06:22:19.000Z,13.11
2023-05-05T06:23:19.000Z,13.20
2023-05-05T06:24:19.000Z,13.22
2023-05-05T06:25:19.000Z,13.32
2023-05-05T06:26:19.000Z,13.40
2023-05-05T06:27:19.000Z,13.41
2023-05-05T06:28:19.000Z,13.51
2023-05-05T06:29:19.000Z,13.54
2023-05-05T06:30:19.000Z,13.61
2023-05-05T06:31:19.000Z,13.59
2023-05-05T06:32:19.000Z,13.65
2023-05-05T06:33:19.000Z,13.70
2023-05-05T06:34:19.000Z,13.76
2023-05-05T06:35:19.000Z,13.81
2023-05-05T06:36:19.000Z,13.87
2023-05-05T06:37:19.000Z,13.91
2023-05-05T06:38:19.000Z,13.96
2023-05-05T06:39:19.000Z,14.02
2023-05-05T06:40:19.000Z,14.04
2023-05-05T06:41:19.000Z,14.12
2023-05-05T06:42:19.000Z,14.10
2023-05-05T06:43:19.000Z,14.13
2023-05-05T06:44:19.000Z,14.21
2023-05-05T06:45:19.000Z,14.27
2023-05-05T06:46:19.000Z,14.29
2023-05-05T06:47:19.000Z,14.35
2023-05-05T06:48:19.000Z,14.42
2023-05-05T06:49:19.000Z,14.49
2023-05-05T06:50:19.000Z,14.53
2023-05-05T06:51:19.000Z,14.56
2023-05-05T06:52:19.000Z,14.64
2023-05-05T06:53:20.000Z,14.69
2023-05-05T06:54:20.000Z,14.78
2023-05-05T06:55:20.000Z,14.78
2023-05-05T06:56:20.000Z,14.84
2023-05-05T06:57:20.000Z,14.88
2023-05-05T06:58:20.000Z,14.93
2023-05-05T06:59:20.000Z,14.98
2023-05-05T07:00:20.000Z,15.02
2023-05-05T07:01:20.000Z,15.05
2023-05-05T07:02:20.000Z,15.06
2023-05-05T07:03:20.000Z,15.12
2023-05-05T07:04:20.000Z,15.21
2023-05-05T07:05:20.000Z,15.26
2023-05-05T07:06:20.000Z,15.30
2023-05-05T07:07:20.000Z,15.36
2023-05-05T07:08:20.000Z,15.43
2023-05-05T07:09:20.000Z,15.46
2023-05-05T07:10:20.000Z,15.57
2023-05-05T07:11:20.000Z,15.59
2023-05-05T07:12:20.000Z,15.66
2023-05-05T07:13:20.000Z,15.67
2023-05-05T07:14:20.000Z,15.74
2023-05-05T07:15:20.000Z,15.78
2023-05-05T07:16:20.000Z,15.79
2023-05-05T07:17:20.000Z,15.88
2023-05-05T07:18:20.000Z,15.93
2023-05-05T07:19:20.000Z,15.94
2023-05-05T07:20:20.000Z,15.99
2023-05-05T07:21:20.000Z,16.03
2023-05-05T07:22:20.000Z,16.12
2023-05-05T07:23:20.000Z,16.20
2023-05-05T07:24:20.000Z,16.20
2023-05-05T07:25:20.000Z,16.26
2023-05-05T07:26:20.000Z,16.30
2023-05-05T07:27:20.000Z,16.31
2023-05-05T07:28:20.000Z,16.35
2023-05-05T07:29:20.000Z,16.45
2023-05-05T07:30:20.000Z,16.56
2023-05-05T07:31:20.000Z,16.63
2023-05-05T07:32:20.000Z,16.70
2023-05-05T07:33:20.000Z,16.75
2023-05-05T07:34:20.000Z,16.78
2023-05-05T07:35:20.000Z,16.86
2023-05-05T07:36:20.000Z,16.90
2023-05-05T07:37:20.000Z,16.92
2023-05-05T07:38:20.000Z,16.92
2023-05-05T07:39:20.000Z,16.95
2023-05-05T07:40:20.000Z,16.96
2023-05-05T07:41:20.000Z,16.99
2023-05-05T07:42:20.000Z,16.99
2023-05-05T07:43:20.000Z,16.99
2023-05-05T07:44:20.000Z,17.06
2023-05-05T07:45:20.000Z,17.07
2023-05-05T07:46:20.000Z,17.13
2023-05-05T07:47:20.000Z,17.15
2023-05-05T07:48:20.000Z,17.14
2023-05-05T07:49:20.000Z,17.18
2023-05-05T07:50:20.000Z,17.22
2023-05-05T07:51:20.000Z,17.26
2023-05-05T07:52:20.000Z,17.40
2023-05-05T07:53:20.000Z,17.47
2023-05-05T07:54:20.000Z,17.51
2023-05-05T07:55:20.000Z,17.57
2023-05-05T07:56:20.000Z,17.62
2023-05-05T07:57:20.000Z,17.62
2023-05-05T07:58:20.000Z,17.67
2023-05-05T07:59:20.000Z,17.69
2023-05-05T08:00:20.000Z,17.76
2023-05-05T08:01:20.000Z,17.79
2023-05-05T08:02:20.000Z,17.84
2023-05-05T08:03:20.000Z,17.82
2023-05-05T08:04:20.000Z,17.87
2023-05-05T08:05:20.000Z,17.87
2023-05-05T08:06:20.000Z,17.94
2023-05-05T08:07:20.000Z,18.02
2023-05-05T08:08:20.000Z,17.99
2023-05-05T08:09:20.000Z,18.04
2023-05-05T08:10:20.000Z,18.06
2023-05-05T08:11:19.000Z,18.09
2023-05-05T08:12:19.000Z,18.13
2023-05-05T08:13:19.000Z,18.18
2023-05-05T08:14:19.000Z,18.17
2023-05-05T08:15:19.000Z,18.21
2023-05-05T08:16:19.000Z,18.22
2023-05-05T08:17:19.000Z,18.28
2023-05-05T08:18:19.000Z,18.31
2023-05-05T08:19:19.000Z,18.34
2023-05-05T08:20:19.000Z,18.39
2023-05-05T08:21:19.000Z,18.49
2023-05-05T08:22:19.000Z,18.55
2023-05-05T08:23:19.000Z,18.58
2023-05-05T08:24:19.000Z,18.68
2023-05-05T08:25:19.000Z,18.79
2023-05-05T08:26:19.000Z,18.86
2023-05-05T08:27:19.000Z,18.92
2023-05-05T08:28:19.000Z,18.98
2023-05-05T08:29:19.000Z,18.99
2023-05-05T08:30:19.000Z,18.99
2023-05-05T08:31:19.000Z,19.01
2023-05-05T08:32:19.000Z,19.10
2023-05-05T08:33:19.000Z,19.15
2023-05-05T08:34:19.000Z,19.15
2023-05-05T08:35:19.000Z,19.15
2023-05-05T08:36:19.000Z,19.14
2023-05-05T08:37:19.000Z,19.11
2023-05-05T08:38:19.000Z,19.15
2023-05-05T08:39:19.000Z,19.21
2023-05-05T08:40:19.000Z,19.25
2023-05-05T08:41:19.000Z,19.33
2023-05-05T08:42:19.000Z,19.39
2023-05-05T08:43:19.000Z,19.48
2023-05-05T08:44:19.000Z,19.57
2023-05-05T08:45:19.000Z,19.58
2023-05-05T08:46:19.000Z,19.55
2023-05-05T08:47:19.000Z,19.47
2023-05-05T08:48:19.000Z,19.38
2023-05-05T08:49:19.000Z,19.35
2023-05-05T08:50:18.000Z,19.36
2023-05-05T08:51:18.000Z,19.42
2023-05-05T08:52:18.000Z,19.50
2023-05-05T08:53:18.000Z,19.57
2023-05-05T08:54:18.000Z,19.58
2023-05-05T08:55:18.000Z,19.60
2023-05-05T08:56:18.000Z,19.63
2023-05-05T08:57:18.000Z,19.70
2023-05-05T08:58:18.000Z,19.73
2023-05-05T08:59:18.000Z,19.78
2023-05-05T09:00:18.000Z,19.91
2023-05-05T09:01:18.000Z,19.98
2023-05-05T09:02:18.000Z,20.09
2023-05-05T09:03:18.000Z,20.24
2023-05-05T09:04:18.000Z,20.35
2023-05-05T09:05:18.000Z,20.49
2023-05-05T09:06:18.000Z,20.56
2023-05-05T09:07:18.000Z,20.56
2023-05-05T09:08:18.000Z,20.58
2023-05-05T09:09:18.000Z,20.53
2023-05-05T09:10:18.000Z,20.46
2023-05-05T09:11:18.000Z,20.35
2023-05-05T09:12:18.000Z,20.25
2023-05-05T09:13:18.000Z,20.25
2023-05-05T09:14:18.000Z,20.31
2023-05-05T09:15:18.000Z,20.41
2023-05-05T09:16:18.000Z,20.51
2023-05-05T09:17:17.000Z,20.59
2023-05-05T09:18:17.000Z,20.68
2023-05-05T09:19:17.000Z,20.71
2023-05-05T09:20:17.000Z,20.80
2023-05-05T09:21:17.000Z,20.83
2023-05-05T09:22:17.000Z,20.84
2023-05-05T09:23:17.000Z,20.84
2023-05-05T09:24:17.000Z,20.84
2023-05-05T09:25:17.000Z,20.89
2023-05-05T09:26:17.000Z,20.93
2023-05-05T09:27:17.000Z,20.90
2023-05-05T09:28:17.000Z,20.87
2023-05-05T09:29:17.000Z,20.87
2023-05-05T09:30:17.000Z,20.86
2023-05-05T09:31:17.000Z,20.89
2023-05-05T09:32:17.000Z,20.96
2023-05-05T09:33:17.000Z,20.95
2023-05-05T09:34:17.000Z,20.98
2023-05-05T09:35:17.000Z,21.05
2023-05-05T09:36:17.000Z,21.11
2023-05-05T09:37:17.000Z,21.17
2023-05-05T09:38:16.000Z,21.23
2023-05-05T09:39:16.000Z,21.29
2023-05-05T09:40:16.000Z,21.39
2023-05-05T09:41:16.000Z,21.45
2023-05-05T09:42:16.000Z,21.48
2023-05-05T09:43:16.000Z,21.51
2023-05-05T09:44:16.000Z,21.48
2023-05-05T09:45:16.000Z,21.44
2023-05-05T09:46:16.000Z,21.32
2023-05-05T09:47:16.000Z,21.26
2023-05-05T09:48:16.000Z,21.24
2023-05-05T09:49:16.000Z,21.26
2023-05-05T09:50:16.000Z,21.23
2023-05-05T09:51:16.000Z,21.26
2023-05-05T09:52:16.000Z,21.24
2023-05-05T09:53:16.000Z,21.29
2023-05-05T09:54:16.000Z,21.26
2023-05-05T09:55:16.000Z,21.35
2023-05-05T09:56:16.000Z,21.35
2023-05-05T09:57:16.000Z,21.35
2023-05-05T09:58:16.000Z,21.39
2023-05-05T09:59:15.000Z,21.36
2023-05-05T10:00:15.000Z,21.38
2023-05-05T10:01:15.000Z,21.42
2023-05-05T10:02:15.000Z,21.39
2023-05-05T10:03:15.000Z,21.41
2023-05-05T10:04:15.000Z,21.34
2023-05-05T10:05:15.000Z,21.30
2023-05-05T10:06:15.000Z,21.29
2023-05-05T10:07:15.000Z,21.24
2023-05-05T10:08:15.000Z,21.17
2023-05-05T10:09:15.000Z,21.17
2023-05-05T10:10:15.000Z,21.21
2023-05-05T10:11:15.000Z,21.27
2023-05-05T10:12:15.000Z,21.35
2023-05-05T10:13:15.000Z,21.36
2023-05-05T10:14:15.000Z,21.36
2023-05-05T10:15:15.000Z,21.36
2023-05-05T10:16:15.000Z,21.30
2023-05-05T10:17:14.000Z,21.24
2023-05-05T10:18:14.000Z,21.19
2023-05-05T10:19:14.000Z,21.21
2023-05-05T10:20:14.000Z,21.27
2023-05-05T10:21:14.000Z,21.24
2023-05-05T10:22:14.000Z,21.24
2023-05-05T10:23:14.000Z,21.24
2023-05-05T10:24:14.000Z,21.23
2023-05-05T10:25:14.000Z,21.27
2023-05-05T10:26:14.000Z,21.27
2023-05-05T10:27:14.000Z,21.24
2023-05-05T10:28:14.000Z,21.24
2023-05-05T10:29:14.000Z,21.20
2023-05-05T10:30:14.000Z,21.23
2023-05-05T10:31:14.000Z,21.21
2023-05-05T10:32:14.000Z,21.20
2023-05-05T10:33:14.000Z,21.21
2023-05-05T10:34:14.000Z,21.24
2023-05-05T10:35:14.000Z,21.32
2023-05-05T10:36:13.000Z,21.36
2023-05-05T10:37:13.000Z,21.42
2023-05-05T10:38:13.000Z,21.46
2023-05-05T10:39:13.000Z,21.51
2023-05-05T10:40:13.000Z,21.54
2023-05-05T10:41:13.000Z,21.60
2023-05-05T10:42:13.000Z,21.66
2023-05-05T10:43:13.000Z,21.63
2023-05-05T10:44:13.000Z,21.56
2023-05-05T10:45:13.000Z,21.56
2023-05-05T10:46:13.000Z,21.57
2023-05-05T10:47:13.000Z,21.54
2023-05-05T10:48:13.000Z,21.51
2023-05-05T10:49:13.000Z,21.46
2023-05-05T10:50:13.000Z,21.39
2023-05-05T10:51:13.000Z,21.39
2023-05-05T10:52:13.000Z,21.36
2023-05-05T10:53:13.000Z,21.34
2023-05-05T10:54:12.000Z,21.35
2023-05-05T10:55:12.000Z,21.41
2023-05-05T10:56:12.000Z,21.46
2023-05-05T10:57:12.000Z,21.46
2023-05-05T10:58:12.000Z,21.54
2023-05-05T10:59:12.000Z,21.59
2023-05-05T11:00:12.000Z,21.61
2023-05-05T11:01:12.000Z,21.67
2023-05-05T11:02:12.000Z,21.64
2023-05-05T11:03:12.000Z,21.71
2023-05-05T11:04:12.000Z,21.72
2023-05-05T11:05:12.000Z,21.74
2023-05-05T11:06:12.000Z,21.79
2023-05-05T11:07:12.000Z,21.90
2023-05-05T11:08:12.000Z,21.90
2023-05-05T11:09:12.000Z,21.95
2023-05-05T11:10:11.000Z,21.95
2023-05-05T11:11:11.000Z,21.94
2023-05-05T11:12:11.000Z,21.91
2023-05-05T11:13:11.000Z,21.95
2023-05-05T11:14:11.000Z,22.01
2023-05-05T11:15:11.000Z,22.09
2023-05-05T11:16:11.000Z,22.10
2023-05-05T11:17:11.000Z,22.09
2023-05-05T11:18:11.000Z,22.07
2023-05-05T11:19:11.000Z,22.07
2023-05-05T11:20:11.000Z,22.07
2023-05-05T11:21:11.000Z,22.07
2023-05-05T11:22:11.000Z,22.09
2023-05-05T11:23:11.000Z,22.07
2023-05-05T11:24:11.000Z,22.07
2023-05-05T11:25:11.000Z,22.12
2023-05-05T11:26:10.000Z,22.12
2023-05-05T11:27:10.000Z,22.12
2023-05-05T11:28:10.000Z,22.16
2023-05-05T11:29:10.000Z,22.22
2023-05-05T11:30:10.000Z,22.27
2023-05-05T11:31:10.000Z,22.32
2023-05-05T11:32:10.000Z,22.31
2023-05-05T11:33:10.000Z,22.28
2023-05-05T11:34:10.000Z,22.27
2023-05-05T11:35:10.000Z,22.28
2023-05-05T11:36:10.000Z,22.37
2023-05-05T11:37:10.000Z,22.41
2023-05-05T11:38:10.000Z,22.49
2023-05-05T11:39:10.000Z,22.53
2023-05-05T11:40:10.000Z,22.59
2023-05-05T11:41:10.000Z,22.64
2023-05-05T11:42:10.000Z,22.67
2023-05-05T11:43:09.000Z,22.62
2023-05-05T11:44:09.000Z,22.54
2023-05-05T11:45:09.000Z,22.52
2023-05-05T11:46:09.000Z,22.46
2023-05-05T11:47:09.000Z,22.38
2023-05-05T11:48:09.000Z,22.44
2023-05-05T11:49:09.000Z,22.43
2023-05-05T11:50:09.000Z,22.43
2023-05-05T11:51:09.000Z,22.43
2023-05-05T11:52:09.000Z,22.38
2023-05-05T11:53:09.000Z,22.37
2023-05-05T11:54:09.000Z,22.34
2023-05-05T11:55:09.000Z,22.41
2023-05-05T11:56:09.000Z,22.38
2023-05-05T11:57:09.000Z,22.38
2023-05-05T11:58:08.000Z,22.39
2023-05-05T11:59:08.000Z,22.37
2023-05-05T12:00:08.000Z,22.35
2023-05-05T12:01:08.000Z,22.31
2023-05-05T12:02:08.000Z,22.34
2023-05-05T12:03:08.000Z,22.34
2023-05-05T12:04:08.000Z,22.37
2023-05-05T12:05:08.000Z,22.47
2023-05-05T12:06:08.000Z,22.50
2023-05-05T12:07:08.000Z,22.56
2023-05-05T12:08:08.000Z,22.69
2023-05-05T12:09:08.000Z,22.71
2023-05-05T12:10:08.000Z,22.71
2023-05-05T12:11:08.000Z,22.71
2023-05-05T12:12:08.000Z,22.74
2023-05-05T12:13:07.000Z,22.78
2023-05-05T12:14:07.000Z,22.77
2023-05-05T12:15:07.000Z,22.82
2023-05-05T12:16:07.000Z,22.78
2023-05-05T12:17:07.000Z,22.75
2023-05-05T12:18:07.000Z,22.68
2023-05-05T12:19:07.000Z,22.59
2023-05-05T12:20:07.000Z,22.56
2023-05-05T12:21:07.000Z,22.52
2023-05-05T12:22:07.000Z,22.52
2023-05-05T12:23:07.000Z,22.46
2023-05-05T12:30:23.000Z,22.72
2023-05-05T12:30:23.000Z,22.65
2023-05-05T12:31:23.000Z,22.77
2023-05-05T12:32:23.000Z,22.74
2023-05-05T12:33:23.000Z,22.75
2023-05-05T12:34:23.000Z,22.78
2023-05-05T12:35:23.000Z,22.82
2023-05-05T12:36:23.000Z,22.84
2023-05-05T12:37:23.000Z,22.84
2023-05-05T12:38:23.000Z,22.86
2023-05-05T12:39:23.000Z,22.87
2023-05-05T12:40:23.000Z,22.92
2023-05-05T12:41:23.000Z,22.97
2023-05-05T12:42:23.000Z,22.93
2023-05-05T12:43:23.000Z,22.99
2023-05-05T12:44:23.000Z,23.05
2023-05-05T12:45:23.000Z,23.09
2023-05-05T12:46:23.000Z,23.14
2023-05-05T12:47:23.000Z,23.20
2023-05-05T12:48:23.000Z,23.23
2023-05-05T12:49:23.000Z,23.34
2023-05-05T12:50:23.000Z,23.49
2023-05-05T12:51:23.000Z,23.57
2023-05-05T12:52:23.000Z,23.64
2023-05-05T12:53:24.000Z,23.67
2023-05-05T12:54:24.000Z,23.64
2023-05-05T12:55:24.000Z,23.64
2023-05-05T12:56:24.000Z,23.70
2023-05-05T12:57:24.000Z,23.72
2023-05-05T12:58:24.000Z,23.79
2023-05-05T12:59:24.000Z,23.77
2023-05-05T13:00:24.000Z,23.82
2023-05-05T13:01:24.000Z,23.82
2023-05-05T13:02:24.000Z,23.80
2023-05-05T13:03:24.000Z,23.82
2023-05-05T13:04:24.000Z,23.79
2023-05-05T13:05:24.000Z,23.80
2023-05-05T13:06:24.000Z,23.77
2023-05-05T13:07:24.000Z,23.71
2023-05-05T13:08:24.000Z,23.60